Time;durP1;ratioP1;P1;durP2;ratioP2;P2;SDS_P1;SDS_P2;PMS_P1;PMS_P2;Temp;Humidity;BMP_temperature;BMP_pressure;BME280_temperature;BME280_humidity;BME280_pressure;Samples;Min_cycle;Max_cycle;Signal;HPM_P1;HPM_P2
2022/12/15 00:41:36;;;;;;;27.23;18.53;;;;;;;;;;4976072;28;20253;-93
2022/12/15 00:44:08;;;;;;;28.43;18.80;;;;;;;;;;4986402;28;20183;-93
2022/12/15 00:46:59;;;;;;;28.73;20.50;;;;;;;;;;4969985;28;20412;-91
2022/12/15 01:21:07;;;;;;;29.23;18.83;;;;;;;;;;4988912;28;20225;-91
2022/12/15 01:23:49;;;;;;;27.33;18.70;;;;;;;;;;4981264;28;20229;-93
2022/12/15 01:26:35;;;;;;;28.27;18.83;;;;;;;;;;4985235;28;20228;-91
2022/12/15 01:32:04;;;;;;;25.80;17.90;;;;;;;;;;4957695;28;20212;-93
2022/12/15 01:37:43;;;;;;;28.03;18.70;;;;;;;;;;4989133;28;20179;-92
2022/12/15 01:43:07;;;;;;;28.77;19.37;;;;;;;;;;4979988;28;20201;-91
2022/12/15 01:45:41;;;;;;;28.07;18.60;;;;;;;;;;4957974;28;20233;-92
2022/12/15 01:48:33;;;;;;;28.40;18.50;;;;;;;;;;4974086;28;20182;-92
2022/12/15 01:54:12;;;;;;;26.70;18.43;;;;;;;;;;4934556;29;20182;-92
2022/12/15 01:57:12;;;;;;;30.17;19.03;;;;;;;;;;4915764;29;20263;-93
2022/12/15 01:59:47;;;;;;;26.73;18.13;;;;;;;;;;4919853;29;20279;-91
2022/12/15 02:02:28;;;;;;;26.20;18.27;;;;;;;;;;4934722;29;20224;-91
2022/12/15 02:05:14;;;;;;;;;;;;;;;;;;;;;
2022/12/15 02:07:52;;;;;;;27.50;18.23;;;;;;;;;;4934276;29;20215;-92
2022/12/15 02:10:42;;;;;;;29.67;17.33;;;;;;;;;;4899999;29;20198;-93
2022/12/15 02:13:13;;;;;;;29.47;18.47;;;;;;;;;;4922973;29;20196;-92
2022/12/15 02:16:03;;;;;;;28.00;18.90;;;;;;;;;;4918457;29;20220;-92
2022/12/15 02:18:38;;;;;;;26.20;18.50;;;;;;;;;;4945877;28;20201;-92
2022/12/15 02:21:14;;;;;;;26.97;18.70;;;;;;;;;;4957890;28;20200;-92
2022/12/15 02:24:09;;;;;;;27.27;18.43;;;;;;;;;;4987080;28;20182;-93
2022/12/15 02:29:53;;;;;;;29.40;18.03;;;;;;;;;;4956605;28;20205;-92
2022/12/15 02:39:13;;;;;;;;;;;;;;;;;;;;;
2022/12/15 02:41:50;;;;;;;24.77;17.83;;;;;;;;;;4922279;29;20200;-93
2022/12/15 02:47:55;;;;;;;27.60;17.27;;;;;;;;;;4954837;29;20199;-93
2022/12/15 02:50:44;;;;;;;26.50;17.27;;;;;;;;;;4943526;29;20209;-93
2022/12/15 02:53:27;;;;;;;;;;;;;;;;;;;;;
2022/12/15 03:05:16;;;;;;;27.48;21.92;;;;;;;;;;4917813;29;20435;-92
2022/12/15 03:11:16;;;;;;;;;;;;;;;;;;;;;
2022/12/15 03:14:22;;;;;;;;;;;;;;;;;;;;;
2022/12/15 03:17:19;;;;;;;29.02;22.85;;;;;;;;;;4965885;28;20419;-94
2022/12/15 03:38:34;;;;;;;26.75;21.13;;;;;;;;;;4892718;29;20482;-93
2022/12/15 03:53:58;;;;;;;;;;;;;;;;;;;;;
2022/12/15 04:03:14;;;;;;;24.53;16.93;;;;;;;;;;4933796;29;20264;-94
2022/12/15 04:05:53;;;;;;;;;;;;;;;;;;;;;
2022/12/15 04:11:40;;;;;;;;;;;;;;;;;;;;;
2022/12/15 04:14:29;;;;;;;26.50;17.10;;;;;;;;;;4956368;28;20195;-94
2022/12/15 04:17:34;;;;;;;25.87;17.03;;;;;;;;;;4936765;29;20195;-93
2022/12/15 05:33:37;;;;;;;27.97;18.60;;;;;;;;;;4879407;29;20221;-94
2022/12/15 05:36:44;;;;;;;;;;;;;;;;;;;;;
2022/12/15 05:52:06;;;;;;;29.40;18.53;;;;;;;;;;4916686;29;20283;-95
2022/12/15 05:58:27;;;;;;;;;;;;;;;;;;;;;
2022/12/15 06:01:16;;;;;;;29.37;19.43;;;;;;;;;;4932271;29;20197;-94
2022/12/15 06:07:23;;;;;;;;;;;;;;;;;;;;;
2022/12/15 06:13:33;;;;;;;28.33;19.20;;;;;;;;;;4942129;29;20301;-94
2022/12/15 06:16:05;;;;;;;34.30;23.63;;;;;;;;;;4946413;28;20242;-94
2022/12/15 06:25:13;;;;;;;;;;;;;;;;;;;;;
2022/12/15 06:30:46;;;;;;;31.70;20.60;;;;;;;;;;4887663;29;20193;-92
2022/12/15 06:36:29;;;;;;;;;;;;;;;;;;;;;
2022/12/15 06:39:38;;;;;;;;;;;;;;;;;;;;;
2022/12/15 06:42:07;;;;;;;28.83;19.57;;;;;;;;;;4916462;29;20203;-94
2022/12/15 06:50:44;;;;;;;55.70;35.83;;;;;;;;;;4957807;28;20277;-95
2022/12/15 06:53:26;;;;;;;40.17;26.47;;;;;;;;;;4974071;28;20214;-96
2022/12/15 06:59:41;;;;;;;;;;;;;;;;;;;;;
2022/12/15 07:02:26;;;;;;;;;;;;;;;;;;;;;
2022/12/15 07:20:10;;;;;;;34.83;21.93;;;;;;;;;;4967180;28;20273;-94
2022/12/15 07:23:10;;;;;;;;;;;;;;;;;;;;;
2022/12/15 07:25:46;;;;;;;33.83;21.17;;;;;;;;;;4982563;28;20188;-92
2022/12/15 07:34:22;;;;;;;29.43;20.50;;;;;;;;;;4982399;28;20225;-91
2022/12/15 07:36:51;;;;;;;33.50;22.47;;;;;;;;;;4997036;28;20177;-90
2022/12/15 07:42:04;;;;;;;41.50;24.67;;;;;;;;;;4997274;28;20193;-92
2022/12/15 07:44:40;;;;;;;36.93;22.50;;;;;;;;;;4961679;28;20217;-91
2022/12/15 07:47:57;;;;;;;30.83;22.27;;;;;;;;;;4958947;28;20197;-92
2022/12/15 07:50:17;;;;;;;34.67;22.50;;;;;;;;;;4971200;28;20191;-93
2022/12/15 08:09:13;;;;;;;31.60;21.00;;;;;;;;;;4956099;29;20174;-93
2022/12/15 08:14:55;;;;;;;34.93;21.17;;;;;;;;;;4949762;28;20175;-94
2022/12/15 08:17:37;;;;;;;;;;;;;;;;;;;;;
2022/12/15 08:27:19;;;;;;;;;;;;;;;;;;;;;
2022/12/15 08:29:53;;;;;;;39.03;29.23;;;;;;;;;;4939075;28;20493;-93
2022/12/15 08:32:28;;;;;;;39.20;25.90;;;;;;;;;;4938858;28;20226;-92
2022/12/15 08:35:26;;;;;;;40.27;26.40;;;;;;;;;;4938140;29;20175;-94
2022/12/15 08:37:54;;;;;;;;;;;;;;;;;;;;;
2022/12/15 08:57:23;;;;;;;26.80;20.83;;;;;;;;;;4786233;30;20449;-92
2022/12/15 09:26:12;;;;;;;;;;;;;;;;;;;;;
2022/12/15 09:57:04;;;;;;;25.08;22.40;;;;;;;;;;4889832;22;20454;-83
2022/12/15 09:59:49;;;;;;;26.25;22.35;;;;;;;;;;5000417;28;20421;-83
2022/12/15 10:02:24;;;;;;;26.03;22.23;;;;;;;;;;5014158;28;20607;-83
2022/12/15 10:05:09;;;;;;;26.97;22.77;;;;;;;;;;5008318;28;20430;-82
2022/12/15 10:07:45;;;;;;;25.52;22.05;;;;;;;;;;5017347;28;20415;-82
2022/12/15 10:10:22;;;;;;;27.25;23.08;;;;;;;;;;4999518;28;20447;-82
2022/12/15 10:12:49;;;;;;;26.83;23.92;;;;;;;;;;4999954;28;20468;-82
2022/12/15 10:15:26;;;;;;;25.08;22.38;;;;;;;;;;5010968;23;20517;-82
2022/12/15 10:18:02;;;;;;;25.88;22.75;;;;;;;;;;5019054;28;20432;-82
2022/12/15 10:20:29;;;;;;;26.85;23.90;;;;;;;;;;5017462;28;20448;-82
2022/12/15 10:23:02;;;;;;;26.92;23.45;;;;;;;;;;5036529;28;20440;-80
2022/12/15 10:25:29;;;;;;;26.92;24.00;;;;;;;;;;5018277;28;20421;-80
2022/12/15 10:28:05;;;;;;;27.88;24.65;;;;;;;;;;5026518;28;20412;-80
2022/12/15 10:30:31;;;;;;;27.52;24.63;;;;;;;;;;5033193;28;20432;-80
2022/12/15 10:32:57;;;;;;;29.48;26.38;;;;;;;;;;5018201;28;20445;-80
2022/12/15 10:35:29;;;;;;;25.92;23.13;;;;;;;;;;5017951;28;20416;-80
2022/12/15 10:37:59;;;;;;;26.73;23.35;;;;;;;;;;5016732;28;20440;-80
2022/12/15 10:40:43;;;;;;;25.27;22.58;;;;;;;;;;5018242;28;20405;-80
2022/12/15 10:43:14;;;;;;;25.35;22.35;;;;;;;;;;5018481;28;20500;-80
2022/12/15 10:45:41;;;;;;;27.02;22.92;;;;;;;;;;5017917;28;20474;-80
2022/12/15 10:48:17;;;;;;;25.70;23.00;;;;;;;;;;5018085;28;20413;-80
2022/12/15 10:50:43;;;;;;;26.83;23.53;;;;;;;;;;5016582;28;20610;-80
2022/12/15 10:53:29;;;;;;;29.15;23.52;;;;;;;;;;5001265;28;20470;-80
2022/12/15 10:56:01;;;;;;;25.92;23.13;;;;;;;;;;5019728;28;20415;-82
2022/12/15 10:58:27;;;;;;;27.80;22.10;;;;;;;;;;5018560;28;20425;-82
2022/12/15 11:01:07;;;;;;;26.23;23.48;;;;;;;;;;5001657;28;20418;-82
2022/12/15 11:03:36;;;;;;;28.13;21.80;;;;;;;;;;5018167;28;20204;-82
2022/12/15 11:06:09;;;;;;;26.53;20.73;;;;;;;;;;5018346;28;20192;-82
2022/12/15 11:08:35;;;;;;;27.73;21.83;;;;;;;;;;5020114;28;20179;-83
2022/12/15 11:14:06;;;;;;;26.63;21.50;;;;;;;;;;5032156;28;20195;-81
2022/12/15 11:16:32;;;;;;;26.80;21.23;;;;;;;;;;5036275;28;20231;-80
2022/12/15 11:19:07;;;;;;;31.70;22.23;;;;;;;;;;5008995;28;20180;-81
2022/12/15 11:21:36;;;;;;;27.67;22.90;;;;;;;;;;5020978;28;20238;-80
2022/12/15 11:24:19;;;;;;;26.53;22.73;;;;;;;;;;5023652;28;20172;-80
2022/12/15 11:26:45;;;;;;;27.40;22.73;;;;;;;;;;5019411;28;20230;-80
2022/12/15 11:29:33;;;;;;;33.10;23.87;;;;;;;;;;5026208;28;20172;-82
2022/12/15 11:31:59;;;;;;;31.70;23.97;;;;;;;;;;5017354;28;20219;-82
2022/12/15 11:34:40;;;;;;;35.47;23.27;;;;;;;;;;5019303;28;20204;-82
2022/12/15 11:37:09;;;;;;;33.93;24.93;;;;;;;;;;5018238;28;20176;-82
2022/12/15 11:39:38;;;;;;;32.63;24.33;;;;;;;;;;5018476;28;20173;-82
2022/12/15 11:42:08;;;;;;;30.00;24.20;;;;;;;;;;5035464;28;20176;-82
2022/12/15 11:45:00;;;;;;;33.58;28.08;;;;;;;;;;5017358;28;20409;-82
2022/12/15 11:47:26;;;;;;;32.50;27.70;;;;;;;;;;4998987;28;20417;-80
2022/12/15 11:50:00;;;;;;;33.30;28.05;;;;;;;;;;5013746;28;20424;-80
2022/12/15 11:52:45;;;;;;;35.65;28.98;;;;;;;;;;5015283;28;20433;-80
2022/12/15 11:55:17;;;;;;;37.03;26.03;;;;;;;;;;5008810;28;20184;-80
2022/12/15 11:57:43;;;;;;;34.47;25.27;;;;;;;;;;5026155;28;20181;-80
2022/12/15 12:00:19;;;;;;;32.87;24.40;;;;;;;;;;5035414;28;20256;-81
2022/12/15 12:02:48;;;;;;;34.30;24.47;;;;;;;;;;5017271;28;20188;-82
2022/12/15 12:05:20;;;;;;;31.30;25.57;;;;;;;;;;5018241;28;20261;-82
2022/12/15 12:08:01;;;;;;;39.73;25.40;;;;;;;;;;5017975;28;20188;-82
2022/12/15 12:10:33;;;;;;;33.37;25.87;;;;;;;;;;5014359;28;20188;-82
2022/12/15 12:13:05;;;;;;;34.27;26.03;;;;;;;;;;5014670;28;20205;-82
2022/12/15 12:15:50;;;;;;;33.30;25.53;;;;;;;;;;5024391;28;20224;-82
2022/12/15 12:18:20;;;;;;;37.53;26.00;;;;;;;;;;5034520;28;20183;-82
2022/12/15 12:20:49;;;;;;;31.67;25.87;;;;;;;;;;5037367;28;20180;-83
2022/12/15 12:23:27;;;;;;;33.70;26.03;;;;;;;;;;5026301;28;20211;-82
2022/12/15 12:25:59;;;;;;;34.13;26.60;;;;;;;;;;5002760;28;20263;-81
2022/12/15 12:28:35;;;;;;;37.67;27.17;;;;;;;;;;5034439;28;20189;-81
2022/12/15 12:31:02;;;;;;;33.73;26.73;;;;;;;;;;5016271;28;20188;-81
2022/12/15 12:33:38;;;;;;;36.37;27.23;;;;;;;;;;5017179;28;20212;-81
2022/12/15 12:36:08;;;;;;;37.00;26.33;;;;;;;;;;5017550;28;20181;-79
2022/12/15 12:38:37;;;;;;;37.90;28.40;;;;;;;;;;5033980;28;20185;-79
2022/12/15 12:41:06;;;;;;;41.30;28.27;;;;;;;;;;5034985;28;20169;-80
2022/12/15 12:43:35;;;;;;;37.60;27.90;;;;;;;;;;5017415;28;20191;-82
2022/12/15 12:46:04;;;;;;;36.33;27.70;;;;;;;;;;5016970;28;20181;-82
2022/12/15 12:48:36;;;;;;;37.17;29.03;;;;;;;;;;5022325;28;20192;-83
2022/12/15 12:51:10;;;;;;;38.13;30.23;;;;;;;;;;5017381;28;20184;-83
2022/12/15 12:53:36;;;;;;;40.83;29.20;;;;;;;;;;5016961;28;20206;-80
2022/12/15 12:56:02;;;;;;;39.03;29.27;;;;;;;;;;5034269;28;20212;-80
2022/12/15 12:58:40;;;;;;;36.77;28.30;;;;;;;;;;5000869;28;20218;-81
2022/12/15 13:01:25;;;;;;;38.73;28.37;;;;;;;;;;5013569;28;20274;-81
2022/12/15 13:04:17;;;;;;;42.53;29.03;;;;;;;;;;5014563;28;20180;-80
2022/12/15 13:06:43;;;;;;;40.33;29.43;;;;;;;;;;5001909;28;20200;-80
2022/12/15 13:09:18;;;;;;;38.53;29.73;;;;;;;;;;5015394;28;20172;-82
2022/12/15 13:11:47;;;;;;;37.60;30.23;;;;;;;;;;5013783;28;20281;-82
2022/12/15 13:14:15;;;;;;;40.90;30.47;;;;;;;;;;5020010;28;20327;-81
2022/12/15 13:16:41;;;;;;;37.13;28.90;;;;;;;;;;5015547;28;20228;-82
2022/12/15 13:19:07;;;;;;;41.97;30.17;;;;;;;;;;4996978;28;20186;-82
2022/12/15 13:21:43;;;;;;;39.60;29.87;;;;;;;;;;5015450;28;20191;-82
2022/12/15 13:24:31;;;;;;;38.97;30.43;;;;;;;;;;5016353;28;20314;-83
2022/12/15 13:27:15;;;;;;;39.63;29.47;;;;;;;;;;5016980;28;20203;-80
2022/12/15 13:30:05;;;;;;;42.60;29.87;;;;;;;;;;5029967;28;20195;-80
2022/12/15 13:32:32;;;;;;;42.57;29.00;;;;;;;;;;5014386;28;20244;-81
2022/12/15 13:35:15;;;;;;;42.90;30.10;;;;;;;;;;5021963;28;20222;-81
2022/12/15 13:37:50;;;;;;;40.33;30.23;;;;;;;;;;5016074;28;20211;-81
2022/12/15 13:40:23;;;;;;;43.43;29.73;;;;;;;;;;5019930;28;20176;-80
2022/12/15 13:42:56;;;;;;;40.00;30.93;;;;;;;;;;5016042;28;20187;-79
2022/12/15 13:45:43;;;;;;;40.83;29.17;;;;;;;;;;5016132;28;20195;-80
2022/12/15 13:48:17;;;;;;;37.63;29.17;;;;;;;;;;5016285;28;20183;-79
2022/12/15 13:50:47;;;;;;;40.10;29.13;;;;;;;;;;5015733;28;20185;-79
2022/12/15 13:53:17;;;;;;;41.17;28.60;;;;;;;;;;5018245;28;20205;-79
2022/12/15 13:55:52;;;;;;;40.43;29.47;;;;;;;;;;5033807;28;20176;-79
2022/12/15 13:58:18;;;;;;;40.77;29.37;;;;;;;;;;5029607;28;20180;-79
2022/12/15 14:00:50;;;;;;;37.87;29.67;;;;;;;;;;5016295;28;20184;-79
2022/12/15 14:03:16;;;;;;;40.27;29.80;;;;;;;;;;5013511;28;20192;-79
2022/12/15 14:05:48;;;;;;;38.13;30.03;;;;;;;;;;5015432;28;20188;-79
2022/12/15 14:08:15;;;;;;;39.03;28.93;;;;;;;;;;5033208;28;20188;-79
2022/12/15 14:10:52;;;;;;;38.43;29.80;;;;;;;;;;5016225;28;20184;-79
2022/12/15 14:13:18;;;;;;;40.83;29.63;;;;;;;;;;5020331;28;20291;-79
2022/12/15 14:15:46;;;;;;;37.57;29.77;;;;;;;;;;5015728;28;20288;-81
2022/12/15 14:18:39;;;;;;;43.40;30.20;;;;;;;;;;5016674;28;20185;-80
2022/12/15 14:21:07;;;;;;;39.87;30.10;;;;;;;;;;5013530;28;20196;-81
2022/12/15 14:23:40;;;;;;;39.70;29.90;;;;;;;;;;5015520;28;20188;-81
2022/12/15 14:26:07;;;;;;;38.50;30.43;;;;;;;;;;5049930;28;20187;-81
2022/12/15 14:28:35;;;;;;;46.20;31.43;;;;;;;;;;5020113;28;20187;-80
2022/12/15 14:31:21;;;;;;;39.47;30.70;;;;;;;;;;5015518;28;20212;-80
2022/12/15 14:33:48;;;;;;;39.17;31.33;;;;;;;;;;5036244;28;20196;-81
2022/12/15 14:36:16;;;;;;;44.38;37.80;;;;;;;;;;5019057;28;20413;-82
2022/12/15 14:38:51;;;;;;;40.28;34.53;;;;;;;;;;5019234;28;20437;-81
2022/12/15 14:41:21;;;;;;;44.00;37.90;;;;;;;;;;5018768;28;20413;-82
2022/12/15 14:43:48;;;;;;;47.50;37.85;;;;;;;;;;5027940;28;20449;-82
2022/12/15 14:46:19;;;;;;;44.35;37.22;;;;;;;;;;5035970;28;20489;-82
2022/12/15 14:48:51;;;;;;;44.20;36.85;;;;;;;;;;5011309;28;20487;-82
2022/12/15 14:51:17;;;;;;;41.23;36.37;;;;;;;;;;4998597;28;20403;-82
2022/12/15 14:53:47;;;;;;;44.75;37.50;;;;;;;;;;5006024;28;20425;-82
2022/12/15 14:56:20;;;;;;;43.25;37.05;;;;;;;;;;5021727;28;20421;-83
2022/12/15 14:58:47;;;;;;;44.97;37.70;;;;;;;;;;5018493;28;20595;-83
2022/12/15 15:01:24;;;;;;;41.83;36.97;;;;;;;;;;5014884;28;20411;-84
2022/12/15 15:04:01;;;;;;;48.65;40.50;;;;;;;;;;4998660;28;20473;-82
2022/12/15 15:06:34;;;;;;;45.28;38.75;;;;;;;;;;5026915;28;20480;-82
2022/12/15 15:09:14;;;;;;;45.25;38.35;;;;;;;;;;5035219;28;20463;-82
2022/12/15 15:11:41;;;;;;;46.35;39.63;;;;;;;;;;5017882;28;20525;-83
2022/12/15 15:14:16;;;;;;;48.83;40.33;;;;;;;;;;5017616;28;20405;-82
2022/12/15 15:16:43;;;;;;;48.80;41.05;;;;;;;;;;5015126;28;20575;-83
2022/12/15 15:19:19;;;;;;;53.05;45.38;;;;;;;;;;4994998;28;20404;-83
2022/12/15 15:21:46;;;;;;;51.17;42.53;;;;;;;;;;4994909;28;20414;-82
2022/12/15 15:24:12;;;;;;;44.53;36.20;;;;;;;;;;4996222;28;20189;-82
2022/12/15 15:26:42;;;;;;;43.37;33.67;;;;;;;;;;4992273;28;20275;-81
2022/12/15 15:29:31;;;;;;;42.87;32.53;;;;;;;;;;4976791;28;20175;-82
2022/12/15 15:32:04;;;;;;;42.17;33.70;;;;;;;;;;4985535;28;20348;-82
2022/12/15 15:34:30;;;;;;;44.57;32.77;;;;;;;;;;4996053;28;20178;-82
2022/12/15 15:36:56;;;;;;;43.77;33.47;;;;;;;;;;4979162;28;20201;-82
2022/12/15 15:39:22;;;;;;;45.93;33.33;;;;;;;;;;4995726;28;20189;-80
2022/12/15 15:41:48;;;;;;;40.23;32.17;;;;;;;;;;4995686;28;20182;-79
2022/12/15 15:44:15;;;;;;;42.77;32.13;;;;;;;;;;4994600;28;20217;-79
2022/12/15 15:46:46;;;;;;;42.57;33.50;;;;;;;;;;4995220;28;20188;-79
2022/12/15 15:49:15;;;;;;;44.20;32.87;;;;;;;;;;4995771;28;20264;-80
2022/12/15 15:51:41;;;;;;;48.08;40.30;;;;;;;;;;4995376;28;20432;-79
2022/12/15 15:54:10;;;;;;;49.75;41.97;;;;;;;;;;4976447;28;20419;-80
2022/12/15 15:56:36;;;;;;;50.53;42.65;;;;;;;;;;4994458;28;20421;-81
2022/12/15 15:59:09;;;;;;;46.23;35.03;;;;;;;;;;4976000;28;20206;-81
2022/12/15 16:01:35;;;;;;;54.10;36.83;;;;;;;;;;4975852;28;20190;-81
2022/12/15 16:04:01;;;;;;;53.77;35.40;;;;;;;;;;4978509;28;20194;-81
2022/12/15 16:06:27;;;;;;;48.88;36.25;;;;;;;;;;4967810;28;20446;-81
2022/12/15 16:08:53;;;;;;;48.00;34.60;;;;;;;;;;4975323;28;20195;-81
2022/12/15 16:11:22;;;;;;;44.27;33.13;;;;;;;;;;4976605;28;20178;-81
2022/12/15 16:13:48;;;;;;;50.77;35.27;;;;;;;;;;4993217;28;20177;-79
2022/12/15 16:16:17;;;;;;;46.83;33.97;;;;;;;;;;4992979;28;20239;-79
2022/12/15 16:18:43;;;;;;;50.33;36.87;;;;;;;;;;5017991;28;20173;-79
2022/12/15 16:21:12;;;;;;;53.17;37.43;;;;;;;;;;5017751;28;20192;-80
2022/12/15 16:23:39;;;;;;;55.63;44.95;;;;;;;;;;5016910;28;20437;-79
2022/12/15 16:26:05;;;;;;;52.03;38.57;;;;;;;;;;5035279;28;20169;-80
2022/12/15 16:28:31;;;;;;;52.37;36.23;;;;;;;;;;5000444;28;20327;-79
2022/12/15 16:30:57;;;;;;;49.17;36.73;;;;;;;;;;5017327;28;20276;-79
2022/12/15 16:33:24;;;;;;;54.47;35.83;;;;;;;;;;5017411;28;20212;-79
2022/12/15 16:35:50;;;;;;;52.67;36.77;;;;;;;;;;5034933;28;20173;-80
2022/12/15 16:38:24;;;;;;;55.33;37.70;;;;;;;;;;4997669;28;20177;-79
2022/12/15 16:40:51;;;;;;;51.43;40.60;;;;;;;;;;5015048;28;20445;-79
2022/12/15 16:43:18;;;;;;;53.37;37.37;;;;;;;;;;4997507;28;20193;-79
2022/12/15 16:45:46;;;;;;;52.13;37.97;;;;;;;;;;4997572;28;20196;-83
2022/12/15 16:48:12;;;;;;;53.80;36.10;;;;;;;;;;4997785;28;20276;-83
2022/12/15 16:50:39;;;;;;;45.80;36.07;;;;;;;;;;5016816;28;20181;-83
2022/12/15 16:53:06;;;;;;;48.20;36.83;;;;;;;;;;5029302;28;20216;-82
2022/12/15 16:55:34;;;;;;;50.90;37.47;;;;;;;;;;5036300;28;20187;-82
2022/12/15 16:58:02;;;;;;;53.27;38.60;;;;;;;;;;5047086;28;20180;-82
2022/12/15 17:00:30;;;;;;;55.07;37.67;;;;;;;;;;5026991;28;20184;-82
2022/12/15 17:02:56;;;;;;;52.17;36.87;;;;;;;;;;5018983;28;20196;-81
2022/12/15 17:05:24;;;;;;;48.10;37.00;;;;;;;;;;5002005;28;20190;-81
2022/12/15 17:07:55;;;;;;;50.43;37.73;;;;;;;;;;5001802;28;20188;-81
2022/12/15 17:10:22;;;;;;;51.40;36.20;;;;;;;;;;5014172;28;20279;-82
2022/12/15 17:12:49;;;;;;;47.63;36.07;;;;;;;;;;5032691;28;20283;-81
2022/12/15 17:15:19;;;;;;;49.70;36.70;;;;;;;;;;5033990;28;20220;-81
2022/12/15 17:17:46;;;;;;;46.13;35.63;;;;;;;;;;5016988;28;20268;-81
2022/12/15 17:20:19;;;;;;;51.57;36.10;;;;;;;;;;5016781;28;20171;-82
2022/12/15 17:22:47;;;;;;;50.77;37.97;;;;;;;;;;5016529;28;20212;-82
2022/12/15 17:25:16;;;;;;;53.60;38.70;;;;;;;;;;5032041;28;20267;-82
2022/12/15 17:27:42;;;;;;;54.00;37.97;;;;;;;;;;5014396;28;20173;-82
2022/12/15 17:30:10;;;;;;;58.00;37.60;;;;;;;;;;5018530;28;20192;-82
2022/12/15 17:32:36;;;;;;;53.23;38.73;;;;;;;;;;5033607;28;20208;-82
2022/12/15 17:35:02;;;;;;;55.10;39.03;;;;;;;;;;5000475;28;20216;-82
2022/12/15 17:37:28;;;;;;;56.10;39.30;;;;;;;;;;5016601;28;20188;-81
2022/12/15 17:39:54;;;;;;;56.57;39.37;;;;;;;;;;5000328;28;20189;-81
2022/12/15 17:42:20;;;;;;;55.57;39.17;;;;;;;;;;5000357;28;20188;-81
2022/12/15 17:44:47;;;;;;;54.87;39.50;;;;;;;;;;5016407;28;20184;-81
2022/12/15 17:47:14;;;;;;;56.50;38.90;;;;;;;;;;5016144;28;20251;-81
2022/12/15 17:49:40;;;;;;;49.10;37.03;;;;;;;;;;5000654;28;20204;-81
2022/12/15 17:52:26;;;;;;;53.37;37.23;;;;;;;;;;5015651;28;20211;-81
2022/12/15 17:54:53;;;;;;;51.33;37.07;;;;;;;;;;5016731;28;20180;-81
2022/12/15 17:57:19;;;;;;;48.23;36.90;;;;;;;;;;5016054;28;20196;-81
2022/12/15 17:59:45;;;;;;;55.37;39.57;;;;;;;;;;5016509;28;20176;-81
2022/12/15 18:02:14;;;;;;;52.87;37.93;;;;;;;;;;5000509;28;20207;-81
2022/12/15 18:04:40;;;;;;;57.47;38.80;;;;;;;;;;5015463;28;20193;-81
2022/12/15 18:07:10;;;;;;;53.53;38.50;;;;;;;;;;5001751;28;20214;-81
2022/12/15 18:09:37;;;;;;;56.40;40.30;;;;;;;;;;5017129;28;20177;-81
2022/12/15 18:12:03;;;;;;;58.10;41.77;;;;;;;;;;5012708;28;20266;-82
2022/12/15 18:14:29;;;;;;;58.57;40.40;;;;;;;;;;5037851;28;20255;-82
2022/12/15 18:16:55;;;;;;;54.47;40.50;;;;;;;;;;5020407;28;20259;-82
2022/12/15 18:19:22;;;;;;;54.93;40.00;;;;;;;;;;5019657;28;20192;-82
2022/12/15 18:21:48;;;;;;;55.00;40.73;;;;;;;;;;5003638;28;20189;-82
2022/12/15 18:24:16;;;;;;;57.37;40.03;;;;;;;;;;5003990;28;20271;-82
2022/12/15 18:26:42;;;;;;;53.17;38.60;;;;;;;;;;5019970;28;20219;-82
2022/12/15 18:29:16;;;;;;;56.63;38.70;;;;;;;;;;5003815;28;20181;-82
2022/12/15 18:31:42;;;;;;;56.90;38.83;;;;;;;;;;5019657;28;20211;-82
2022/12/15 18:34:12;;;;;;;54.27;37.50;;;;;;;;;;5003499;28;20181;-81
2022/12/15 18:36:39;;;;;;;54.30;38.47;;;;;;;;;;5017866;28;20180;-82
2022/12/15 18:39:18;;;;;;;52.97;37.50;;;;;;;;;;5017749;28;20227;-81
2022/12/15 18:41:44;;;;;;;55.47;39.30;;;;;;;;;;5019015;28;20280;-80
2022/12/15 18:44:37;;;;;;;54.23;39.53;;;;;;;;;;4988439;28;20185;-80
2022/12/15 18:47:05;;;;;;;58.83;39.13;;;;;;;;;;5017864;28;20196;-80
2022/12/15 18:49:34;;;;;;;55.87;39.17;;;;;;;;;;5019420;28;20195;-82
2022/12/15 18:52:00;;;;;;;55.80;40.40;;;;;;;;;;5019128;28;20215;-79
2022/12/15 18:54:27;;;;;;;61.72;50.42;;;;;;;;;;5018192;28;20413;-79
2022/12/15 18:56:53;;;;;;;55.77;42.03;;;;;;;;;;5001862;28;20185;-78
2022/12/15 18:59:19;;;;;;;56.83;41.63;;;;;;;;;;5030276;28;20177;-79
2022/12/15 19:01:46;;;;;;;59.40;40.20;;;;;;;;;;5019911;28;20238;-79
2022/12/15 19:04:15;;;;;;;81.30;40.27;;;;;;;;;;5016976;28;20174;-79
2022/12/15 19:06:42;;;;;;;55.30;38.37;;;;;;;;;;5011434;28;20226;-79
2022/12/15 19:09:17;;;;;;;54.77;37.07;;;;;;;;;;5005915;28;20235;-79
2022/12/15 19:12:16;;;;;;;54.73;38.60;;;;;;;;;;5019133;28;20271;-79
2022/12/15 19:14:39;;;;;;;53.20;38.73;;;;;;;;;;5034053;28;20177;-81
2022/12/15 19:22:37;;;;;;;57.13;40.00;;;;;;;;;;5021874;28;20328;-80
2022/12/15 19:25:04;;;;;;;57.43;41.07;;;;;;;;;;5017832;28;20196;-80
2022/12/15 19:27:30;;;;;;;59.70;40.93;;;;;;;;;;5015483;28;20272;-80
2022/12/15 19:29:56;;;;;;;62.33;41.80;;;;;;;;;;5010277;28;20266;-80
2022/12/15 19:32:23;;;;;;;62.53;45.75;;;;;;;;;;5002805;28;20437;-80
2022/12/15 19:34:49;;;;;;;60.27;41.13;;;;;;;;;;5011403;28;20189;-80
2022/12/15 19:37:22;;;;;;;55.17;41.70;;;;;;;;;;5023919;28;20180;-80
2022/12/15 19:39:48;;;;;;;56.07;39.73;;;;;;;;;;5036030;28;20181;-80
2022/12/15 19:42:19;;;;;;;58.57;41.63;;;;;;;;;;4998481;28;20189;-80
2022/12/15 19:44:45;;;;;;;61.17;42.33;;;;;;;;;;5009158;28;20200;-80
2022/12/15 19:47:12;;;;;;;61.90;50.50;;;;;;;;;;5017361;28;20445;-80
2022/12/15 19:49:39;;;;;;;66.37;54.23;;;;;;;;;;5017140;28;20543;-82
2022/12/15 19:52:05;;;;;;;63.42;52.92;;;;;;;;;;5013311;28;20463;-81
2022/12/15 19:54:31;;;;;;;63.30;52.08;;;;;;;;;;5036877;28;20469;-82
2022/12/15 19:56:57;;;;;;;64.87;46.90;;;;;;;;;;5018895;28;20165;-82
2022/12/15 19:59:24;;;;;;;62.90;44.67;;;;;;;;;;5002307;28;20208;-81
2022/12/15 20:01:51;;;;;;;58.60;41.97;;;;;;;;;;5014471;28;20181;-81
2022/12/15 20:04:20;;;;;;;61.77;41.83;;;;;;;;;;5002153;28;20181;-82
2022/12/15 20:06:47;;;;;;;65.35;51.78;;;;;;;;;;5017278;28;20419;-79
2022/12/15 20:09:14;;;;;;;67.03;53.85;;;;;;;;;;5017675;28;20451;-79
2022/12/15 20:11:40;;;;;;;65.53;52.88;;;;;;;;;;5034633;28;20416;-79
2022/12/15 20:14:14;;;;;;;61.58;51.45;;;;;;;;;;5016951;28;20408;-79
2022/12/15 20:16:40;;;;;;;63.30;52.87;;;;;;;;;;5017111;28;20557;-79
2022/12/15 20:19:07;;;;;;;62.80;51.65;;;;;;;;;;4997538;28;20419;-79
2022/12/15 20:21:35;;;;;;;59.95;51.38;;;;;;;;;;4997295;28;20395;-79
2022/12/15 20:24:07;;;;;;;65.15;52.25;;;;;;;;;;4997162;28;20404;-81
2022/12/15 20:26:34;;;;;;;63.17;51.92;;;;;;;;;;4997145;28;20391;-82
2022/12/15 20:29:00;;;;;;;60.70;51.05;;;;;;;;;;4996941;28;20411;-82
2022/12/15 20:31:27;;;;;;;62.13;52.03;;;;;;;;;;4996686;28;20491;-81
2022/12/15 20:33:53;;;;;;;63.70;53.50;;;;;;;;;;5014656;28;20418;-81
2022/12/15 20:36:23;;;;;;;66.68;54.55;;;;;;;;;;4996803;28;20399;-81
2022/12/15 20:38:49;;;;;;;71.93;59.13;;;;;;;;;;5014909;28;20447;-77
2022/12/15 20:41:16;;;;;;;87.90;71.55;;;;;;;;;;5000382;28;20498;-77
2022/12/15 20:43:42;;;;;;;92.13;74.65;;;;;;;;;;5016419;28;20420;-77
2022/12/15 20:46:14;;;;;;;74.03;54.03;;;;;;;;;;5017369;28;20184;-77
2022/12/15 20:48:40;;;;;;;73.13;53.20;;;;;;;;;;5017143;28;20188;-77
2022/12/15 20:51:13;;;;;;;79.60;51.93;;;;;;;;;;5034569;28;20177;-77
2022/12/15 20:53:39;;;;;;;68.90;48.23;;;;;;;;;;5016985;28;20205;-78
2022/12/15 20:56:05;;;;;;;68.33;47.83;;;;;;;;;;5017007;28;20168;-80
2022/12/15 20:58:31;;;;;;;62.57;43.70;;;;;;;;;;5000880;28;20181;-80
2022/12/15 21:00:57;;;;;;;60.17;41.03;;;;;;;;;;5000885;28;20195;-80
2022/12/15 21:03:23;;;;;;;60.87;43.27;;;;;;;;;;5000836;28;20275;-80
2022/12/15 21:05:50;;;;;;;63.13;42.10;;;;;;;;;;5017255;28;20188;-80
2022/12/15 21:08:17;;;;;;;57.83;40.27;;;;;;;;;;5034291;28;20223;-80
2022/12/15 21:10:43;;;;;;;56.40;40.53;;;;;;;;;;5017133;28;20219;-80
2022/12/15 21:13:15;;;;;;;55.60;39.63;;;;;;;;;;5000361;28;20299;-77
2022/12/15 21:15:41;;;;;;;56.43;39.47;;;;;;;;;;5016874;28;20227;-77
2022/12/15 21:18:11;;;;;;;55.63;39.07;;;;;;;;;;5016941;28;20208;-77
2022/12/15 21:20:38;;;;;;;55.57;37.20;;;;;;;;;;5016965;28;20214;-77
2022/12/15 21:23:04;;;;;;;59.33;41.87;;;;;;;;;;5017157;28;20195;-77
2022/12/15 21:25:30;;;;;;;60.80;49.65;;;;;;;;;;4999414;28;20475;-77
2022/12/15 21:27:56;;;;;;;63.53;51.15;;;;;;;;;;4999671;28;20410;-77
2022/12/15 21:30:24;;;;;;;61.40;50.47;;;;;;;;;;4999480;28;20418;-78
2022/12/15 21:32:51;;;;;;;61.40;51.08;;;;;;;;;;5015287;28;20472;-78
2022/12/15 21:35:17;;;;;;;66.40;53.10;;;;;;;;;;5003583;28;20433;-78
2022/12/15 21:37:49;;;;;;;62.25;51.85;;;;;;;;;;5015211;28;20429;-78
2022/12/15 21:40:20;;;;;;;60.97;51.58;;;;;;;;;;5015414;28;20402;-79
2022/12/15 21:42:47;;;;;;;64.78;53.63;;;;;;;;;;5021268;28;20411;-79
2022/12/15 21:45:14;;;;;;;61.45;52.33;;;;;;;;;;5032249;28;20423;-81
2022/12/15 21:50:24;;;;;;;72.78;60.03;;;;;;;;;;5023314;28;20433;-81
2022/12/15 21:52:50;;;;;;;73.25;61.20;;;;;;;;;;5008770;28;20433;-81